Time;durP1;ratioP1;P1;durP2;ratioP2;P2;SDS_P1;SDS_P2;PMS_P1;PMS_P2;Temp;Humidity;BMP_temperature;BMP_pressure;BME280_temperature;BME280_humidity;BME280_pressure;Samples;Min_cycle;Max_cycle;Signal;HPM_P1;HPM_P2
2022/11/01 00:00:47;;;;;;;102.78;96.68;;;;;;;15.48;73.73;101906.78;4987659;28;102440;-50
2022/11/01 00:03:15;;;;;;;96.57;90.65;;;;;;;15.48;73.53;101907.63;4977926;28;102179;-49
2022/11/01 00:05:41;;;;;;;101.15;95.10;;;;;;;15.48;73.47;101904.88;4992604;28;103849;-49
2022/11/01 00:08:08;;;;;;;98.95;93.03;;;;;;;15.48;73.23;101902.13;4996110;28;102250;-50
2022/11/01 00:10:35;;;;;;;106.20;99.90;;;;;;;15.48;73.36;101902.13;4985294;28;102152;-49
2022/11/01 00:13:03;;;;;;;94.22;88.70;;;;;;;15.47;73.38;101903.22;4977179;28;102201;-49
2022/11/01 00:15:30;;;;;;;100.70;94.80;;;;;;;15.48;73.51;101901.31;4995121;28;104143;-49
2022/11/01 00:17:57;;;;;;;100.18;94.25;;;;;;;15.47;73.71;101897.75;4987115;28;102642;-49
2022/11/01 00:20:23;;;;;;;98.45;92.68;;;;;;;15.48;73.36;101895.81;4976730;28;102431;-50
2022/11/01 00:22:50;;;;;;;112.53;106.05;;;;;;;15.47;73.48;101899.63;4987776;28;102109;-50
2022/11/01 00:25:17;;;;;;;104.97;98.45;;;;;;;15.47;73.85;101900.50;4994771;28;103979;-49
2022/11/01 00:27:43;;;;;;;98.15;92.28;;;;;;;15.47;73.42;101884.03;4984664;28;102062;-49
2022/11/01 00:30:12;;;;;;;93.57;88.05;;;;;;;15.47;73.57;101894.16;4976114;28;102306;-49
2022/11/01 00:32:40;;;;;;;95.68;90.07;;;;;;;15.46;73.43;101890.59;4988967;28;102620;-50
2022/11/01 00:35:07;;;;;;;95.63;90.10;;;;;;;15.46;73.87;101890.59;4995285;28;103961;-50
2022/11/01 00:37:34;;;;;;;103.32;97.32;;;;;;;15.47;73.73;101892.25;4986262;28;102176;-50
2022/11/01 00:40:00;;;;;;;97.47;91.80;;;;;;;15.46;73.21;101885.09;4982221;28;102281;-50
2022/11/01 00:42:27;;;;;;;97.18;91.50;;;;;;;15.47;73.69;101885.94;4976650;28;102177;-50
2022/11/01 00:44:53;;;;;;;106.78;100.57;;;;;;;15.46;73.60;101887.84;4975406;28;103838;-50
2022/11/01 00:47:21;;;;;;;93.18;87.75;;;;;;;15.46;73.56;101887.84;4975955;28;102167;-50
2022/11/01 00:49:48;;;;;;;104.63;98.68;;;;;;;15.46;73.49;101881.53;4989654;28;102576;-49
2022/11/01 00:52:15;;;;;;;99.68;93.90;;;;;;;15.45;73.82;101880.72;4996946;28;102394;-49
2022/11/01 00:54:41;;;;;;;100.57;94.78;;;;;;;15.44;73.21;101879.09;4995535;28;103998;-49
2022/11/01 00:57:08;;;;;;;93.32;87.78;;;;;;;15.47;73.84;101883.19;4990405;28;103609;-49
2022/11/01 00:59:35;;;;;;;94.68;89.28;;;;;;;15.46;73.86;101885.09;4995447;28;102447;-49
2022/11/01 01:02:01;;;;;;;93.68;88.30;;;;;;;15.46;73.58;101887.03;4996810;28;102454;-50
2022/11/01 01:04:29;;;;;;;100.57;94.70;;;;;;;15.46;73.38;101884.28;4994982;28;103989;-49
2022/11/01 01:06:56;;;;;;;100.57;94.63;;;;;;;15.44;73.59;101887.31;4987975;28;102049;-49
2022/11/01 01:09:23;;;;;;;95.03;89.20;;;;;;;15.46;73.36;101887.03;4990609;28;102260;-50
2022/11/01 01:11:49;;;;;;;93.28;87.88;;;;;;;15.45;73.91;101885.41;4987775;28;102457;-49
2022/11/01 01:14:16;;;;;;;98.18;92.55;;;;;;;15.45;73.61;101886.22;4994739;28;103979;-50
2022/11/01 01:16:42;;;;;;;95.57;90.07;;;;;;;15.46;73.72;101898.00;4989352;28;102834;-49
2022/11/01 01:19:09;;;;;;;93.53;88.05;;;;;;;15.44;73.52;101890.06;4979912;28;103175;-49
2022/11/01 01:21:37;;;;;;;97.80;92.22;;;;;;;15.45;73.72;101885.41;4976487;28;102544;-49
2022/11/01 01:24:04;;;;;;;90.85;85.47;;;;;;;15.44;73.88;101890.06;4992281;28;103906;-50
2022/11/01 01:26:31;;;;;;;101.13;95.30;;;;;;;15.44;73.76;101884.56;4994787;28;102119;-49
2022/11/01 01:28:59;;;;;;;90.53;85.32;;;;;;;15.43;73.37;101877.41;4995126;28;102233;-49
2022/11/01 01:31:25;;;;;;;95.15;89.57;;;;;;;15.43;73.49;101877.41;4996321;28;102077;-50
2022/11/01 01:33:52;;;;;;;92.47;87.07;;;;;;;15.43;73.29;101882.91;4993911;28;104079;-49
2022/11/01 01:36:18;;;;;;;95.88;90.20;;;;;;;15.43;73.23;101877.41;4985023;28;102334;-50
2022/11/01 01:38:46;;;;;;;95.55;90.15;;;;;;;15.44;73.11;101898.28;4979576;28;102665;-49
2022/11/01 01:43:58;;;;;;;89.45;84.22;;;;;;;15.44;73.10;101884.56;4994679;28;103897;-49
2022/11/01 01:46:25;;;;;;;97.13;91.53;;;;;;;15.43;73.46;101895.81;4985477;28;102140;-50
2022/11/01 01:48:56;;;;;;;89.90;84.72;;;;;;;15.43;73.34;101891.13;4980503;28;102589;-49
2022/11/01 01:51:25;;;;;;;92.25;86.93;;;;;;;15.43;73.52;101890.31;4982067;28;102326;-50
2022/11/01 01:53:56;;;;;;;96.05;90.63;;;;;;;15.41;73.33;101896.09;4974271;28;103914;-50
2022/11/01 01:56:29;;;;;;;86.20;81.35;;;;;;;15.41;73.53;101898.84;4976974;28;102463;-50
2022/11/01 01:59:01;;;;;;;95.40;89.97;;;;;;;15.42;73.74;101903.22;4987819;28;102487;-50
2022/11/01 02:01:30;;;;;;;84.85;80.05;;;;;;;15.42;73.70;101905.16;4997697;28;102373;-50
2022/11/01 02:03:57;;;;;;;84.53;79.60;;;;;;;15.42;73.32;101897.72;4997217;28;103995;-50
2022/11/01 02:06:25;;;;;;;96.10;90.70;;;;;;;15.41;73.39;101901.59;4997670;28;102049;-50
2022/11/01 02:08:55;;;;;;;99.53;94.00;;;;;;;15.41;73.34;101901.59;4998516;28;102544;-50
2022/11/01 02:11:22;;;;;;;93.70;88.45;;;;;;;15.41;73.59;101901.59;4985768;28;102260;-50
2022/11/01 02:13:51;;;;;;;97.30;91.83;;;;;;;15.42;73.12;101907.88;4977935;28;104483;-49
2022/11/01 02:16:36;;;;;;;95.93;90.35;;;;;;;15.39;73.11;101906.50;4978928;28;102279;-50
2022/11/01 02:19:45;;;;;;;88.20;83.20;;;;;;;15.39;73.74;101904.59;4976470;28;101841;-50
2022/11/01 02:22:17;;;;;;;87.70;82.77;;;;;;;15.40;73.19;101908.19;4998611;28;102220;-49
2022/11/01 02:25:31;;;;;;;94.15;88.85;;;;;;;15.39;73.20;101904.59;4997352;28;103454;-50
2022/11/01 02:28:13;;;;;;;90.68;85.55;;;;;;;15.39;73.62;101909.25;4987123;28;102076;-50
2022/11/01 02:30:46;;;;;;;87.18;82.22;;;;;;;15.39;73.36;101907.31;4978392;28;102003;-49
2022/11/01 02:33:26;;;;;;;94.95;89.55;;;;;;;15.40;73.30;101916.41;4979739;28;102505;-49
2022/11/01 02:36:00;;;;;;;97.55;92.15;;;;;;;15.39;73.34;101914.72;4994955;28;108074;-52
2022/11/01 02:38:30;;;;;;;94.43;89.18;;;;;;;15.39;73.13;101918.28;4987726;28;102586;-50
2022/11/01 02:41:02;;;;;;;94.07;88.82;;;;;;;15.39;73.47;101920.22;4991057;28;102473;-50
2022/11/01 02:43:35;;;;;;;93.20;87.93;;;;;;;15.38;73.21;101924.06;4998806;28;102185;-50
2022/11/01 02:46:59;;;;;;;96.63;91.30;;;;;;;15.39;73.65;101928.44;4997460;28;104159;-50
2022/11/01 02:48:53;;;;;;;;;;;;;;;15.39;73.64;101931.19;4987102;28;102733;-49
2022/11/01 02:51:23;;;;;;;83.55;78.93;;;;;;;15.38;73.51;101918.59;4978233;28;102604;-49
2022/11/01 02:53:49;;;;;;;91.22;86.18;;;;;;;15.38;73.53;101921.31;4979251;28;102231;-49
2022/11/01 02:56:17;;;;;;;95.82;90.45;;;;;;;15.37;73.35;101922.44;4988033;28;103985;-49
2022/11/01 02:58:46;;;;;;;89.20;84.23;;;;;;;15.37;73.22;101923.25;4996585;28;102726;-49
2022/11/01 03:01:20;;;;;;;92.03;86.93;;;;;;;15.37;73.53;101923.25;4997992;28;102284;-50
2022/11/01 03:03:51;;;;;;;91.43;86.40;;;;;;;15.38;72.94;101929.56;4982759;28;102342;-49
2022/11/01 03:06:26;;;;;;;87.22;82.47;;;;;;;15.37;73.55;101927.91;4976763;28;103876;-49
2022/11/01 03:08:59;;;;;;;95.93;90.63;;;;;;;15.37;73.22;101936.16;4987539;28;102098;-49
2022/11/01 03:11:31;;;;;;;92.95;87.78;;;;;;;15.36;73.33;101937.22;4993662;28;102002;-50
2022/11/01 03:14:01;;;;;;;99.28;93.82;;;;;;;15.35;73.69;101930.91;4978714;28;102431;-49
2022/11/01 03:16:33;;;;;;;93.00;87.68;;;;;;;15.36;73.56;101931.72;4977406;28;104126;-49
2022/11/01 03:19:07;;;;;;;85.22;80.60;;;;;;;15.36;73.11;101937.22;4986078;28;102389;-49
2022/11/01 03:21:40;;;;;;;97.53;92.18;;;;;;;15.35;73.50;101941.06;4980489;28;102055;-49
2022/11/01 03:24:16;;;;;;;89.45;84.60;;;;;;;15.35;73.61;101938.31;4985416;28;102499;-50
2022/11/01 03:26:48;;;;;;;97.40;91.80;;;;;;;15.35;73.28;101933.66;4996134;28;108227;-50
2022/11/01 03:29:17;;;;;;;86.85;82.00;;;;;;;15.34;73.17;101933.94;4983954;28;102350;-49
2022/11/01 03:31:45;;;;;;;90.00;85.00;;;;;;;15.34;73.65;101936.69;4977214;28;102269;-49
2022/11/01 03:34:15;;;;;;;98.70;93.38;;;;;;;15.34;73.40;101944.91;4997813;28;102227;-49
2022/11/01 03:36:49;;;;;;;81.45;76.85;;;;;;;15.35;73.23;101941.06;4996531;28;103930;-50
2022/11/01 03:39:21;;;;;;;95.60;90.25;;;;;;;15.35;73.48;101943.81;4983410;28;102175;-50
2022/11/01 03:41:53;;;;;;;86.32;81.57;;;;;;;15.34;73.54;101939.44;4976816;28;102223;-50
2022/11/01 03:44:20;;;;;;;88.85;84.00;;;;;;;15.34;73.14;101942.19;4978083;28;102229;-49
2022/11/01 03:46:46;;;;;;;94.47;89.28;;;;;;;15.35;73.14;101946.56;4976277;28;104155;-49
2022/11/01 03:49:16;;;;;;;92.25;87.28;;;;;;;15.33;73.30;101943.28;4988822;28;102287;-50
2022/11/01 03:51:44;;;;;;;86.00;81.18;;;;;;;15.34;73.55;101950.41;4996539;28;102319;-49
2022/11/01 03:54:11;;;;;;;97.00;91.68;;;;;;;15.33;73.08;101948.78;4992119;28;102556;-50
2022/11/01 03:56:40;;;;;;;92.18;87.10;;;;;;;15.32;73.04;101941.63;4978469;28;103930;-49
2022/11/01 03:59:07;;;;;;;94.13;89.05;;;;;;;15.32;73.16;101941.63;4976515;28;102434;-49
2022/11/01 04:01:34;;;;;;;97.45;92.18;;;;;;;15.33;73.39;101941.34;4990424;28;102307;-49
2022/11/01 04:04:01;;;;;;;103.32;97.72;;;;;;;15.33;72.86;101943.28;4997389;28;102214;-50
2022/11/01 04:06:28;;;;;;;91.15;86.20;;;;;;;15.32;73.32;101958.06;4996321;28;103995;-50
2022/11/01 04:08:56;;;;;;;93.22;88.32;;;;;;;15.32;73.45;101947.09;4987321;28;102404;-50
2022/11/01 04:11:22;;;;;;;94.33;89.23;;;;;;;15.33;73.37;101949.59;4977864;28;101998;-49
2022/11/01 04:13:49;;;;;;;90.32;85.32;;;;;;;15.32;72.96;101952.59;4997734;28;102288;-50
2022/11/01 04:21:47;;;;;;;90.30;85.28;;;;;;;15.32;73.35;101947.91;4975935;28;102289;-49
2022/11/01 04:24:19;;;;;;;90.38;85.50;;;;;;;15.32;73.03;101958.06;4977304;28;102221;-49
2022/11/01 04:26:46;;;;;;;90.50;85.63;;;;;;;15.30;73.42;101949.31;4976827;28;103865;-49
2022/11/01 04:29:13;;;;;;;95.25;90.10;;;;;;;15.31;72.98;101956.44;4988054;28;102495;-49
2022/11/01 04:31:41;;;;;;;85.15;80.65;;;;;;;15.31;73.14;101953.69;4995916;28;101925;-49
2022/11/01 04:34:08;;;;;;;94.32;89.30;;;;;;;15.30;73.39;101952.88;4997268;28;102193;-49
2022/11/01 04:36:37;;;;;;;88.78;83.95;;;;;;;15.30;73.29;101961.09;4986239;28;104196;-49
2022/11/01 04:39:04;;;;;;;94.63;89.57;;;;;;;15.30;73.15;101950.13;4988955;28;102368;-50
2022/11/01 04:41:32;;;;;;;93.68;88.57;;;;;;;15.31;73.09;101956.44;4983346;28;102205;-50
2022/11/01 04:43:59;;;;;;;94.35;89.25;;;;;;;15.31;73.14;101957.25;4980887;28;102214;-50
2022/11/01 04:46:29;;;;;;;85.90;81.28;;;;;;;15.30;73.15;101965.75;4975152;28;104007;-50
2022/11/01 04:48:55;;;;;;;97.60;92.38;;;;;;;15.30;73.15;101971.25;4985361;28;102401;-49
2022/11/01 04:51:22;;;;;;;89.43;84.63;;;;;;;15.29;73.50;101966.84;4981404;28;102072;-49
2022/11/01 04:53:51;;;;;;;92.63;87.70;;;;;;;15.29;73.21;101964.09;4981008;28;102187;-50
2022/11/01 04:56:18;;;;;;;92.75;87.72;;;;;;;15.31;72.96;101981.13;4993346;28;104188;-50
2022/11/01 04:58:46;;;;;;;88.50;83.75;;;;;;;15.29;73.00;101970.44;4995103;28;102404;-50
2022/11/01 05:01:13;;;;;;;92.00;87.00;;;;;;;15.30;72.99;101966.59;4977378;28;102490;-49
2022/11/01 05:03:39;;;;;;;86.45;81.68;;;;;;;15.30;73.38;101968.50;4987535;28;102316;-49
2022/11/01 05:06:06;;;;;;;88.78;84.03;;;;;;;15.31;73.35;101972.88;4977445;28;105014;-49
2022/11/01 05:08:34;;;;;;;84.03;79.40;;;;;;;15.32;73.16;101980.00;4983047;28;102027;-49
2022/11/01 05:11:03;;;;;;;79.90;75.50;;;;;;;15.32;73.25;101980.00;4994810;28;102407;-49
2022/11/01 05:13:32;;;;;;;90.90;86.07;;;;;;;15.30;73.12;101977.56;4994693;28;102537;-50
2022/11/01 05:16:03;;;;;;;88.90;84.20;;;;;;;15.32;73.21;101969.88;4981372;28;104163;-49
2022/11/01 05:18:31;;;;;;;92.30;87.40;;;;;;;15.31;73.23;101967.41;4989492;28;101882;-49
2022/11/01 05:20:59;;;;;;;86.57;81.90;;;;;;;15.31;73.04;101967.41;4989774;28;101986;-49
2022/11/01 05:23:25;;;;;;;89.68;84.80;;;;;;;15.31;72.88;101968.22;4988853;28;102036;-50
2022/11/01 05:25:52;;;;;;;89.15;84.38;;;;;;;15.32;72.97;101969.88;4991682;28;104817;-49
2022/11/01 05:28:21;;;;;;;88.35;83.55;;;;;;;15.33;72.98;101970.72;4997060;28;102106;-49
2022/11/01 05:30:49;;;;;;;86.88;82.18;;;;;;;15.33;73.41;101978.94;4995976;28;102139;-49
2022/11/01 05:33:16;;;;;;;89.47;84.75;;;;;;;15.32;73.04;101974.53;4997527;28;102348;-50
2022/11/01 05:35:44;;;;;;;85.13;80.63;;;;;;;15.31;73.46;101973.72;4996051;28;103771;-50
2022/11/01 05:38:11;;;;;;;93.78;88.82;;;;;;;15.31;72.96;101981.13;4996490;28;101914;-50
2022/11/01 05:40:39;;;;;;;88.70;83.97;;;;;;;15.31;72.90;101973.72;4995401;28;101945;-50
2022/11/01 05:43:05;;;;;;;83.28;78.72;;;;;;;15.31;73.09;101975.63;4997473;28;102116;-50
2022/11/01 05:45:32;;;;;;;87.68;82.88;;;;;;;15.32;73.03;101982.75;4995545;28;104058;-50
2022/11/01 05:48:01;;;;;;;85.10;80.43;;;;;;;15.30;72.96;101983.03;4992795;28;102084;-49
2022/11/01 05:50:31;;;;;;;81.35;76.90;;;;;;;15.30;73.15;101977.56;4991335;28;102222;-49
2022/11/01 05:53:04;;;;;;;88.20;83.23;;;;;;;15.30;72.86;101982.22;4990069;28;102215;-50
2022/11/01 05:55:32;;;;;;;96.35;91.22;;;;;;;15.30;73.11;101982.22;4987041;28;103905;-51
2022/11/01 05:57:58;;;;;;;88.03;83.18;;;;;;;15.32;73.16;101980.00;4985317;28;102056;-51
2022/11/01 06:00:25;;;;;;;90.65;85.75;;;;;;;15.32;73.17;101988.25;4995582;28;101886;-50
2022/11/01 06:02:51;;;;;;;87.68;82.93;;;;;;;15.31;73.33;101990.16;4988881;28;102296;-51
2022/11/01 06:05:17;;;;;;;87.22;82.40;;;;;;;15.32;73.37;101990.97;4976299;28;104203;-50
2022/11/01 06:07:48;;;;;;;88.95;84.07;;;;;;;15.32;73.13;101996.47;4989818;28;102444;-51
2022/11/01 06:10:15;;;;;;;88.47;83.70;;;;;;;15.32;73.20;101988.25;4981927;28;102025;-50
2022/11/01 06:12:41;;;;;;;87.93;83.15;;;;;;;15.31;72.97;101992.91;4977414;28;102076;-50
2022/11/01 06:15:08;;;;;;;84.30;79.65;;;;;;;15.32;73.28;101996.47;4984047;28;103906;-51
2022/11/01 06:17:35;;;;;;;89.82;84.93;;;;;;;15.32;73.10;101985.50;4996675;28;101968;-51
2022/11/01 06:20:01;;;;;;;84.93;80.38;;;;;;;15.32;72.97;101985.50;4995542;28;102036;-51
2022/11/01 06:22:33;;;;;;;88.07;83.10;;;;;;;15.32;73.08;101993.72;5002804;28;102126;-50
2022/11/01 06:25:01;;;;;;;84.28;79.65;;;;;;;15.32;73.37;101990.97;4999465;28;104050;-51
2022/11/01 06:27:28;;;;;;;87.00;82.18;;;;;;;15.31;73.06;101989.34;5007749;28;102445;-51
2022/11/01 06:29:54;;;;;;;86.13;81.18;;;;;;;15.32;72.92;101993.72;4995189;28;102321;-51
2022/11/01 06:32:20;;;;;;;90.78;85.60;;;;;;;15.32;72.74;101990.97;5015657;28;102504;-51
2022/11/01 06:34:47;;;;;;;88.88;84.05;;;;;;;15.32;73.20;101996.47;5014019;28;103970;-50
2022/11/01 06:37:14;;;;;;;88.43;83.55;;;;;;;15.31;73.16;101989.34;5006343;28;102198;-51
2022/11/01 06:39:40;;;;;;;93.82;88.60;;;;;;;15.32;73.17;101996.47;4998994;28;102581;-50
2022/11/01 06:42:09;;;;;;;97.82;92.53;;;;;;;15.33;73.40;101998.13;5001525;28;102209;-51
2022/11/01 06:44:35;;;;;;;88.57;83.75;;;;;;;15.33;73.46;102001.69;5008925;28;103846;-50
2022/11/01 06:47:02;;;;;;;88.70;83.70;;;;;;;15.33;73.36;102003.63;5005976;28;102144;-50
2022/11/01 06:49:29;;;;;;;99.93;94.47;;;;;;;15.33;73.62;102000.88;5008768;28;102352;-51
2022/11/01 06:51:55;;;;;;;93.97;88.72;;;;;;;15.35;73.83;101998.66;5003455;28;102669;-50
2022/11/01 06:54:22;;;;;;;96.80;91.35;;;;;;;15.35;73.69;101999.50;5008888;28;104107;-51
2022/11/01 06:56:49;;;;;;;92.80;87.63;;;;;;;15.35;73.62;101998.66;5017910;28;102192;-50
2022/11/01 06:59:17;;;;;;;98.22;92.90;;;;;;;15.37;73.67;102004.72;5004745;28;102204;-51
2022/11/01 07:01:43;;;;;;;95.57;90.35;;;;;;;15.37;73.79;101993.75;4998669;28;102236;-51
2022/11/01 07:04:10;;;;;;;98.72;93.38;;;;;;;15.38;73.71;101992.66;4996940;28;104094;-51
2022/11/01 07:06:37;;;;;;;100.20;94.75;;;;;;;15.39;74.06;101992.34;5016314;28;102077;-51
2022/11/01 07:09:04;;;;;;;95.07;89.93;;;;;;;15.39;73.54;101989.63;5006581;28;102355;-51
2022/11/01 07:11:32;;;;;;;101.60;96.13;;;;;;;15.41;73.75;101989.38;5004381;28;102450;-51
2022/11/01 07:13:58;;;;;;;101.68;96.18;;;;;;;15.40;73.83;101990.47;5013588;28;104969;-50
2022/11/01 07:16:30;;;;;;;91.10;85.93;;;;;;;15.41;74.11;101996.78;5010024;28;102075;-50
2022/11/01 07:18:58;;;;;;;;;;;;;;;15.40;74.11;101993.22;5002870;28;102405;-50
2022/11/01 07:21:24;;;;;;;95.22;90.20;;;;;;;15.40;74.09;101990.47;5008669;28;102658;-51
2022/11/01 07:23:53;;;;;;;92.80;87.67;;;;;;;15.42;74.20;101990.19;5005542;28;104880;-51
2022/11/01 07:26:20;;;;;;;96.63;91.22;;;;;;;15.42;73.55;101988.25;4997364;28;102210;-51
2022/11/01 07:28:46;;;;;;;98.55;93.20;;;;;;;15.42;73.56;101988.25;5005561;28;102383;-51
2022/11/01 07:31:13;;;;;;;95.03;89.93;;;;;;;15.43;73.30;101987.16;5009133;28;102266;-51
2022/11/01 07:33:44;;;;;;;93.03;87.80;;;;;;;15.44;73.13;101982.50;5002707;28;103923;-51
2022/11/01 07:36:10;;;;;;;92.70;87.63;;;;;;;15.44;72.93;101983.34;5005253;28;102360;-51
2022/11/01 07:38:38;;;;;;;97.82;92.50;;;;;;;15.44;73.24;101983.34;4997422;28;102573;-51
2022/11/01 07:41:05;;;;;;;98.55;93.03;;;;;;;15.46;72.97;101989.34;5011999;28;102521;-51
2022/11/01 07:43:33;;;;;;;96.05;90.88;;;;;;;15.47;73.37;101991.03;4996732;28;104003;-51
2022/11/01 07:45:59;;;;;;;95.77;90.60;;;;;;;15.48;73.27;101989.91;5009681;28;102439;-51
2022/11/01 07:48:26;;;;;;;103.80;98.18;;;;;;;15.49;73.01;101986.06;5012472;28;102364;-51
2022/11/01 07:50:56;;;;;;;89.30;84.37;;;;;;;15.48;72.83;101981.69;5017959;28;102235;-51
2022/11/01 07:53:23;;;;;;;96.70;91.40;;;;;;;15.50;73.24;101984.97;5012931;28;104102;-51
2022/11/01 07:55:49;;;;;;;98.40;93.00;;;;;;;15.52;73.03;101985.53;5010680;28;102511;-51
2022/11/01 07:58:16;;;;;;;100.85;95.43;;;;;;;15.54;72.56;101982.50;5014000;28;102397;-50
2022/11/01 08:00:44;;;;;;;105.28;99.60;;;;;;;15.54;73.02;101983.34;5007679;28;102199;-51
2022/11/01 08:03:12;;;;;;;96.15;90.95;;;;;;;15.53;72.76;101970.69;5000932;28;104125;-50
2022/11/01 08:05:40;;;;;;;92.07;86.63;;;;;;;15.53;72.79;101976.19;4997671;28;102244;-51
2022/11/01 08:08:08;;;;;;;90.65;85.78;;;;;;;15.55;72.52;101974.00;5010055;28;103648;-51
2022/11/01 08:10:36;;;;;;;93.72;88.65;;;;;;;15.56;72.64;101970.16;5017293;28;102136;-50
2022/11/01 08:13:04;;;;;;;95.97;90.88;;;;;;;15.57;72.75;101971.78;5015961;28;104082;-50
2022/11/01 08:15:31;;;;;;;93.07;87.97;;;;;;;15.59;72.62;101969.63;5010733;28;102228;-50
2022/11/01 08:17:57;;;;;;;99.90;94.32;;;;;;;15.61;73.12;101972.06;5015603;28;102203;-51
2022/11/01 08:20:25;;;;;;;100.05;94.55;;;;;;;15.60;72.82;101965.75;5010360;28;103110;-50
2022/11/01 08:22:53;;;;;;;96.77;91.43;;;;;;;15.62;72.67;101971.00;5002712;28;103997;-51
2022/11/01 08:25:21;;;;;;;96.85;91.50;;;;;;;15.61;72.62;101972.91;5005818;28;102397;-51
2022/11/01 08:27:47;;;;;;;97.07;91.63;;;;;;;15.63;72.68;101967.16;4997218;28;102057;-51
2022/11/01 08:30:16;;;;;;;90.57;85.65;;;;;;;15.65;72.82;101969.59;5010219;28;102385;-51
2022/11/01 08:32:43;;;;;;;90.82;85.85;;;;;;;15.66;72.92;101965.81;4996752;28;103900;-51
2022/11/01 08:35:11;;;;;;;90.37;85.47;;;;;;;15.67;72.57;101964.72;5000691;28;102181;-51
2022/11/01 08:37:47;;;;;;;91.05;86.07;;;;;;;15.68;72.47;101960.84;5013453;28;102130;-51
2022/11/01 08:40:14;;;;;;;89.55;84.68;;;;;;;15.68;72.49;101964.41;5006543;28;102288;-51
2022/11/01 08:42:42;;;;;;;101.70;96.25;;;;;;;15.70;72.63;101961.41;5010640;28;103742;-51
2022/11/01 08:45:09;;;;;;;100.68;95.32;;;;;;;15.72;72.19;101961.94;5013850;28;102826;-51
2022/11/01 08:47:38;;;;;;;85.00;80.32;;;;;;;15.71;72.65;101954.81;5005357;28;102279;-51
2022/11/01 08:50:06;;;;;;;91.20;86.32;;;;;;;15.71;72.47;101961.13;5017134;28;102175;-50
2022/11/01 08:52:33;;;;;;;91.05;86.25;;;;;;;15.73;72.24;101964.44;5013759;28;104130;-51
2022/11/01 08:55:01;;;;;;;92.85;88.03;;;;;;;15.75;72.20;101961.41;5006139;28;102755;-50
2022/11/01 08:57:27;;;;;;;92.90;87.90;;;;;;;15.76;72.39;101957.53;5001598;28;102177;-50
2022/11/01 08:59:55;;;;;;;97.97;92.60;;;;;;;15.78;72.35;101955.34;5015016;28;102195;-51
2022/11/01 09:02:22;;;;;;;96.55;91.40;;;;;;;15.78;72.26;101961.66;5014455;28;103913;-50
2022/11/01 09:04:49;;;;;;;90.32;85.50;;;;;;;15.79;72.46;101951.50;4995539;28;102323;-51
2022/11/01 09:07:16;;;;;;;95.47;90.45;;;;;;;15.78;72.23;101939.72;4998889;28;102380;-50
2022/11/01 09:09:42;;;;;;;95.18;90.20;;;;;;;15.80;72.44;101942.19;5011918;28;102665;-51
2022/11/01 09:12:08;;;;;;;91.85;86.97;;;;;;;15.81;72.28;101943.84;5003905;28;104096;-50
2022/11/01 09:14:36;;;;;;;92.47;87.43;;;;;;;15.78;72.62;101939.72;5003468;28;101971;-50
2022/11/01 09:17:04;;;;;;;89.65;84.88;;;;;;;15.79;72.57;101941.34;5005306;28;102400;-51
2022/11/01 09:19:31;;;;;;;88.65;83.85;;;;;;;15.80;72.38;101936.72;5013780;28;102418;-50
2022/11/01 09:21:57;;;;;;;90.85;86.05;;;;;;;15.80;71.99;101931.22;5004685;28;104886;-51
2022/11/01 09:24:24;;;;;;;89.53;84.75;;;;;;;15.80;71.82;101923.81;5010387;28;102244;-51
2022/11/01 09:26:52;;;;;;;92.93;87.85;;;;;;;15.81;72.38;101927.38;5014830;28;102247;-50
2022/11/01 09:29:20;;;;;;;83.47;79.00;;;;;;;15.81;72.05;101927.38;5015764;28;102348;-51
2022/11/01 09:31:50;;;;;;;88.50;83.82;;;;;;;15.81;72.11;101924.63;5007738;28;104179;-50
2022/11/01 09:34:18;;;;;;;87.75;83.15;;;;;;;15.80;71.73;101923.81;5014773;28;102322;-50
2022/11/01 09:36:44;;;;;;;89.00;84.23;;;;;;;15.81;72.26;101924.63;5014978;28;102275;-50
2022/11/01 09:39:15;;;;;;;84.03;79.47;;;;;;;15.81;71.82;101916.38;5011312;28;102436;-51
2022/11/01 09:41:46;;;;;;;86.82;82.28;;;;;;;15.79;71.89;101918.56;5014284;28;103949;-51
2022/11/01 09:44:17;;;;;;;92.82;87.90;;;;;;;15.79;72.34;101913.91;5015266;28;102137;-51
2022/11/01 09:46:48;;;;;;;85.13;80.43;;;;;;;15.79;71.93;101919.38;5015223;28;101999;-50
2022/11/01 09:49:22;;;;;;;85.72;81.20;;;;;;;15.79;71.62;101918.56;5016355;28;102077;-50
2022/11/01 09:51:50;;;;;;;84.80;80.35;;;;;;;15.79;72.00;101913.91;5014086;28;104075;-51
2022/11/01 09:54:20;;;;;;;80.20;76.00;;;;;;;15.79;71.74;101904.84;5014932;28;102440;-51
2022/11/01 09:56:55;;;;;;;86.47;81.93;;;;;;;15.79;71.82;101918.56;5014616;28;102047;-51
2022/11/01 09:59:30;;;;;;;86.40;81.88;;;;;;;15.79;71.49;101913.91;5006093;28;102462;-50
2022/11/01 10:02:14;;;;;;;80.93;76.55;;;;;;;15.77;71.60;101915.31;5013614;28;103847;-50
2022/11/01 10:05:14;;;;;;;79.50;75.28;;;;;;;15.76;71.59;101908.16;5000093;28;102219;-51
2022/11/01 10:07:48;;;;;;;85.40;80.80;;;;;;;15.75;71.72;101901.00;4994294;28;102918;-50
2022/11/01 10:10:31;;;;;;;79.40;75.10;;;;;;;15.76;71.65;101900.75;5013217;28;102280;-51
2022/11/01 10:13:12;;;;;;;79.78;75.45;;;;;;;15.75;71.20;101901.00;5011174;28;103644;-51
2022/11/01 10:15:54;;;;;;;78.70;74.47;;;;;;;15.75;71.58;101898.28;5014387;28;102061;-51
2022/11/01 10:18:27;;;;;;;77.82;73.70;;;;;;;15.73;71.36;101893.06;5014952;28;102468;-51
2022/11/01 10:20:58;;;;;;;74.65;70.65;;;;;;;15.72;71.48;101890.59;5019185;28;102151;-50
2022/11/01 10:23:36;;;;;;;80.97;76.70;;;;;;;15.73;71.59;101881.28;5017024;28;103947;-50
2022/11/01 10:26:05;;;;;;;80.60;76.30;;;;;;;15.72;71.45;101890.59;5017748;28;102228;-50
2022/11/01 10:28:43;;;;;;;73.57;69.70;;;;;;;15.73;71.50;101892.25;5017543;28;102500;-50
2022/11/01 10:31:14;;;;;;;70.63;66.82;;;;;;;15.70;71.16;101887.31;5018492;28;102362;-50
2022/11/01 10:33:47;;;;;;;72.00;68.22;;;;;;;15.68;71.28;101881.28;5017029;28;104043;-50
2022/11/01 10:36:18;;;;;;;76.18;72.00;;;;;;;15.69;71.20;101882.94;5016917;28;102093;-50
2022/11/01 10:38:49;;;;;;;69.63;65.65;;;;;;;15.68;71.47;101889.50;5009124;28;103314;-50
2022/11/01 10:41:21;;;;;;;79.00;74.53;;;;;;;15.68;71.13;101884.00;5001988;28;102292;-50
2022/11/01 10:43:51;;;;;;;76.55;72.40;;;;;;;15.67;71.64;101876.88;4998764;28;103832;-50
2022/11/01 10:46:20;;;;;;;73.47;69.32;;;;;;;15.67;71.11;101879.63;5001828;28;102465;-50
2022/11/01 10:48:51;;;;;;;75.82;71.68;;;;;;;15.66;71.35;101875.25;5017658;28;102847;-50
2022/11/01 10:51:23;;;;;;;68.65;64.93;;;;;;;15.66;70.75;101883.50;5018239;28;102458;-50
2022/11/01 10:53:53;;;;;;;74.57;70.53;;;;;;;15.65;71.01;101881.78;5002340;28;108094;-51
2022/11/01 10:56:24;;;;;;;67.22;63.42;;;;;;;15.65;70.68;101879.88;5007644;28;102255;-50
2022/11/01 10:58:58;;;;;;;75.68;71.53;;;;;;;15.65;70.91;101879.03;5007789;28;102417;-51
2022/11/01 11:01:29;;;;;;;71.97;67.97;;;;;;;15.65;70.46;101876.28;5012260;28;102554;-50
2022/11/01 11:04:00;;;;;;;75.53;71.40;;;;;;;15.64;70.46;101878.22;5016535;28;104868;-50
2022/11/01 11:06:28;;;;;;;69.78;65.95;;;;;;;15.62;70.58;101874.94;5017039;28;102503;-51
2022/11/01 11:08:56;;;;;;;72.93;68.90;;;;;;;15.62;70.63;101867.53;5017113;28;102353;-50
2022/11/01 11:11:32;;;;;;;67.05;63.25;;;;;;;15.62;70.03;101870.28;5010909;28;102181;-50
2022/11/01 11:14:01;;;;;;;72.20;68.20;;;;;;;15.62;70.45;101866.72;4997252;28;103640;-51
2022/11/01 11:16:34;;;;;;;69.65;65.72;;;;;;;15.62;70.49;101863.97;4997510;28;102316;-50
2022/11/01 11:19:11;;;;;;;71.60;67.80;;;;;;;15.61;70.59;101860.41;5016203;28;101919;-50